createdAt,value
2018-03-15T00:01:41.952Z,23.07
2018-03-15T00:04:10.246Z,21.20
2018-03-15T00:06:38.429Z,17.67
2018-03-15T00:09:06.641Z,20.03
2018-03-15T00:11:34.851Z,24.33
2018-03-15T00:14:03.809Z,23.03
2018-03-15T00:16:32.767Z,25.70
2018-03-15T00:19:01.073Z,23.23
2018-03-15T00:21:29.287Z,21.47
2018-03-15T00:23:57.541Z,24.53
2018-03-15T00:26:26.513Z,22.77
2018-03-15T00:28:54.733Z,22.33
2018-03-15T00:31:23.679Z,24.00
2018-03-15T00:33:51.908Z,23.80
2018-03-15T00:36:20.098Z,20.40
2018-03-15T00:38:48.320Z,22.23
2018-03-15T00:41:18.035Z,22.30
2018-03-15T00:43:46.228Z,25.33
2018-03-15T00:46:14.517Z,24.47
2018-03-15T00:48:42.713Z,23.23
2018-03-15T00:51:10.920Z,20.83
2018-03-15T00:53:39.203Z,19.47
2018-03-15T00:56:08.334Z,22.00
2018-03-15T00:58:36.589Z,21.30
2018-03-15T01:01:04.778Z,21.60
2018-03-15T01:03:33.825Z,21.53
2018-03-15T01:06:02.013Z,20.80
2018-03-15T01:08:31.053Z,23.57
2018-03-15T01:10:59.272Z,23.00
2018-03-15T01:13:28.232Z,22.97
2018-03-15T01:15:57.258Z,19.23
2018-03-15T01:18:26.253Z,18.97
2018-03-15T01:20:54.475Z,22.60
2018-03-15T01:23:22.729Z,19.83
2018-03-15T01:25:50.913Z,22.03
2018-03-15T01:28:19.090Z,21.27
2018-03-15T01:30:47.320Z,23.33
2018-03-15T01:33:15.620Z,21.40
2018-03-15T01:35:43.832Z,21.50
2018-03-15T01:38:12.048Z,20.37
2018-03-15T01:40:41.008Z,22.07
2018-03-15T01:43:09.258Z,24.33
2018-03-15T01:45:37.458Z,22.60
2018-03-15T01:48:05.664Z,21.50
2018-03-15T01:50:33.878Z,19.30
2018-03-15T01:53:02.111Z,21.43
2018-03-15T01:55:30.369Z,19.10
2018-03-15T01:57:58.660Z,19.67
2018-03-15T02:00:26.932Z,21.60
2018-03-15T02:02:56.005Z,20.23
2018-03-15T02:05:25.038Z,17.80
2018-03-15T02:07:53.321Z,17.83
2018-03-15T02:10:21.558Z,14.67
2018-03-15T02:12:49.834Z,16.90
2018-03-15T02:15:18.856Z,16.20
2018-03-15T02:17:48.200Z,13.57
2018-03-15T02:20:16.454Z,22.83
2018-03-15T02:22:44.676Z,24.10
2018-03-15T02:25:13.435Z,16.47
2018-03-15T02:27:41.773Z,22.13
2018-03-15T02:30:09.988Z,13.33
2018-03-15T02:32:38.255Z,15.40
2018-03-15T02:35:06.456Z,10.87
2018-03-15T02:37:34.671Z,15.50
2018-03-15T02:40:02.874Z,13.53
2018-03-15T02:42:31.082Z,13.70
2018-03-15T02:44:59.692Z,11.33
2018-03-15T02:47:28.039Z,14.40
2018-03-15T02:49:56.316Z,10.90
2018-03-15T02:52:24.567Z,12.70
2018-03-15T02:54:52.827Z,8.33
2018-03-15T02:57:21.044Z,10.67
2018-03-15T02:59:50.066Z,9.30
2018-03-15T03:02:18.243Z,9.60
2018-03-15T03:04:46.449Z,4.83
2018-03-15T03:07:14.661Z,9.23
2018-03-15T03:09:43.632Z,8.10
2018-03-15T03:12:11.794Z,9.40
2018-03-15T03:14:40.018Z,11.30
2018-03-15T03:17:08.220Z,10.40
2018-03-15T03:19:36.473Z,6.60
2018-03-15T03:22:04.663Z,9.53
2018-03-15T03:24:32.881Z,9.73
2018-03-15T03:27:01.164Z,8.70
2018-03-15T03:29:29.414Z,8.77
2018-03-15T03:31:57.635Z,9.27
2018-03-15T03:34:25.865Z,11.47
2018-03-15T03:36:54.067Z,8.40
2018-03-15T03:39:22.311Z,7.90
2018-03-15T03:41:50.511Z,8.07
2018-03-15T03:44:18.800Z,6.00
2018-03-15T03:46:47.811Z,8.63
2018-03-15T03:49:16.135Z,9.17
2018-03-15T03:51:44.393Z,9.57
2018-03-15T03:54:12.727Z,10.33
2018-03-15T03:56:41.013Z,10.27
2018-03-15T03:59:09.295Z,7.57
2018-03-15T04:01:37.587Z,8.90
2018-03-15T04:04:05.779Z,10.20
2018-03-15T04:06:33.964Z,7.00
2018-03-15T04:09:02.150Z,10.23
2018-03-15T04:11:30.363Z,12.27
2018-03-15T04:13:58.568Z,8.10
2018-03-15T04:16:26.796Z,10.07
2018-03-15T04:18:55.777Z,9.57
2018-03-15T04:21:24.745Z,9.13
2018-03-15T04:23:53.251Z,11.17
2018-03-15T04:26:22.304Z,11.77
2018-03-15T04:28:50.474Z,15.80
2018-03-15T04:31:18.675Z,13.13
2018-03-15T04:33:46.890Z,12.90
2018-03-15T04:36:15.174Z,17.47
2018-03-15T04:38:43.375Z,12.67
2018-03-15T04:41:12.445Z,16.97
2018-03-15T04:43:40.625Z,16.60
2018-03-15T04:46:08.826Z,15.97
2018-03-15T04:48:37.035Z,15.23
2018-03-15T04:51:05.267Z,20.20
2018-03-15T04:53:33.467Z,16.80
2018-03-15T04:56:01.673Z,21.63
2018-03-15T04:58:29.972Z,19.40
2018-03-15T05:00:58.139Z,17.27
2018-03-15T05:03:26.400Z,22.53
2018-03-15T05:05:54.637Z,17.13
2018-03-15T05:08:22.868Z,22.03
2018-03-15T05:10:51.091Z,18.00
2018-03-15T05:13:20.064Z,19.77
2018-03-15T05:15:48.359Z,19.90
2018-03-15T05:18:16.879Z,17.43
2018-03-15T05:20:45.061Z,21.67
2018-03-15T05:23:13.275Z,19.30
2018-03-15T05:25:41.479Z,21.13
2018-03-15T05:28:09.691Z,17.40
2018-03-15T05:30:37.942Z,19.13
2018-03-15T05:33:06.130Z,18.77
2018-03-15T05:35:34.336Z,21.40
2018-03-15T05:38:02.617Z,22.07
2018-03-15T05:40:30.891Z,17.93
2018-03-15T05:42:59.090Z,27.80
2018-03-15T05:45:28.060Z,19.93
2018-03-15T05:47:56.265Z,16.03
2018-03-15T05:50:24.488Z,22.40
2018-03-15T05:52:52.672Z,20.57
2018-03-15T05:55:20.898Z,20.50
2018-03-15T05:57:49.161Z,19.33
2018-03-15T06:00:18.114Z,19.53
2018-03-15T06:02:46.320Z,16.13
2018-03-15T06:05:14.526Z,21.80
2018-03-15T06:07:42.748Z,19.70
2018-03-15T06:10:10.999Z,17.27
2018-03-15T06:12:39.168Z,18.90
2018-03-15T06:15:07.392Z,15.33
2018-03-15T06:17:35.611Z,19.63
2018-03-15T06:20:03.847Z,16.37
2018-03-15T06:22:32.065Z,14.40
2018-03-15T06:25:00.314Z,12.93
2018-03-15T06:27:28.561Z,14.77
2018-03-15T06:29:57.531Z,16.80
2018-03-15T06:32:25.789Z,15.23
2018-03-15T06:34:53.987Z,12.63
2018-03-15T06:37:22.238Z,12.60
2018-03-15T06:39:50.465Z,11.87
2018-03-15T06:42:18.683Z,14.63
2018-03-15T06:44:46.892Z,13.80
2018-03-15T06:47:15.861Z,8.53
2018-03-15T06:49:44.078Z,10.70
2018-03-15T06:52:12.414Z,15.53
2018-03-15T06:54:40.594Z,11.07
2018-03-15T06:57:08.851Z,12.70
2018-03-15T06:59:37.034Z,14.63
2018-03-15T07:02:05.217Z,11.50
2018-03-15T07:04:33.420Z,9.53
2018-03-15T07:07:01.651Z,11.73
2018-03-15T07:09:29.875Z,10.93
2018-03-15T07:11:58.077Z,9.30
2018-03-15T07:14:26.257Z,11.50
2018-03-15T07:16:54.449Z,12.07
2018-03-15T07:19:22.642Z,7.50
2018-03-15T07:21:51.644Z,12.50
2018-03-15T07:24:19.874Z,10.33
2018-03-15T07:26:48.072Z,11.97
2018-03-15T07:29:16.289Z,11.50
2018-03-15T07:31:44.474Z,11.33
2018-03-15T07:34:12.686Z,11.40
2018-03-15T07:36:40.872Z,14.77
2018-03-15T07:39:09.153Z,11.17
2018-03-15T07:41:37.357Z,18.70
2018-03-15T07:44:05.560Z,10.40
2018-03-15T07:46:33.772Z,12.70
2018-03-15T07:49:02.757Z,11.10
2018-03-15T07:51:31.757Z,12.60
2018-03-15T07:54:00.737Z,9.97
2018-03-15T07:56:28.961Z,9.20
2018-03-15T07:58:57.127Z,16.33
2018-03-15T08:01:25.430Z,10.00
2018-03-15T08:03:53.656Z,10.70
2018-03-15T08:06:22.615Z,12.33
2018-03-15T08:08:50.842Z,14.83
2018-03-15T08:11:19.181Z,9.90
2018-03-15T08:13:48.179Z,8.80
2018-03-15T08:16:17.143Z,13.50
2018-03-15T08:18:45.356Z,7.93
2018-03-15T08:21:13.695Z,8.30
2018-03-15T08:23:41.913Z,13.10
2018-03-15T08:26:10.104Z,10.80
2018-03-15T08:28:38.281Z,10.80
2018-03-15T08:31:06.527Z,10.90
2018-03-15T08:33:34.730Z,13.83
2018-03-15T08:36:02.933Z,12.37
2018-03-15T08:38:31.234Z,10.77
2018-03-15T08:41:00.226Z,13.47
2018-03-15T08:43:29.242Z,7.13
2018-03-15T08:45:58.337Z,8.63
2018-03-15T08:48:27.316Z,8.73
2018-03-15T08:50:56.269Z,13.93
2018-03-15T08:53:24.472Z,13.03
2018-03-15T08:55:52.777Z,9.97
2018-03-15T08:58:21.039Z,11.23
2018-03-15T09:00:49.284Z,10.57
2018-03-15T09:03:17.496Z,14.20
2018-03-15T09:05:45.713Z,14.57
2018-03-15T09:08:14.582Z,11.13
2018-03-15T09:10:42.765Z,12.00
2018-03-15T09:13:11.054Z,12.47
2018-03-15T09:15:39.403Z,11.50
2018-03-15T09:18:07.676Z,11.37
2018-03-15T09:20:35.871Z,12.57
2018-03-15T09:23:04.054Z,13.00
2018-03-15T09:25:32.373Z,15.63
2018-03-15T09:28:01.318Z,13.93
2018-03-15T09:30:29.571Z,15.53
2018-03-15T09:32:57.833Z,14.07
2018-03-15T09:35:26.075Z,15.43
2018-03-15T09:37:55.211Z,19.03
2018-03-15T09:40:23.424Z,17.10
2018-03-15T09:42:51.670Z,15.93
2018-03-15T09:45:20.038Z,12.77
2018-03-15T09:47:48.262Z,15.57
2018-03-15T09:50:17.286Z,14.57
2018-03-15T09:52:45.509Z,15.80
2018-03-15T09:55:13.953Z,18.60
2018-03-15T09:57:42.915Z,15.80
2018-03-15T10:00:12.018Z,14.10
2018-03-15T10:02:41.023Z,20.30
2018-03-15T10:05:09.262Z,18.40
2018-03-15T10:07:38.275Z,14.70
2018-03-15T10:10:06.548Z,12.50
2018-03-15T10:12:34.782Z,15.87
2018-03-15T10:15:02.998Z,20.30
2018-03-15T10:17:31.267Z,20.63
2018-03-15T10:19:59.465Z,16.17
2018-03-15T10:22:27.650Z,17.17
2018-03-15T10:24:55.864Z,20.33
2018-03-15T10:27:24.095Z,24.30
2018-03-15T10:29:52.308Z,20.63
2018-03-15T10:32:20.632Z,21.87
2018-03-15T10:34:48.925Z,19.70
2018-03-15T10:37:17.257Z,22.17
2018-03-15T10:39:45.448Z,21.07
2018-03-15T10:42:13.699Z,19.13
2018-03-15T10:44:42.772Z,16.30
2018-03-15T10:47:10.971Z,17.33
2018-03-15T10:49:39.988Z,20.97
2018-03-15T10:52:08.854Z,19.57
2018-03-15T10:54:37.064Z,30.03
2018-03-15T10:57:05.290Z,16.10
2018-03-15T10:59:33.477Z,19.13
2018-03-15T11:02:06.308Z,22.40
2018-03-15T11:04:34.485Z,20.27
2018-03-15T11:07:04.468Z,17.23
2018-03-15T11:09:32.768Z,16.60
2018-03-15T11:12:00.980Z,20.10
2018-03-15T11:14:29.168Z,19.10
2018-03-15T11:16:57.410Z,18.70
2018-03-15T11:19:25.647Z,17.30
2018-03-15T11:21:53.883Z,22.07
2018-03-15T11:24:22.862Z,26.97
2018-03-15T11:26:51.153Z,24.33
2018-03-15T11:29:19.388Z,29.40
2018-03-15T11:31:47.660Z,29.17
2018-03-15T11:34:15.930Z,25.50
2018-03-15T11:36:44.187Z,20.23
2018-03-15T11:39:12.442Z,28.03
2018-03-15T11:41:40.649Z,25.60
2018-03-15T11:44:08.838Z,24.37
2018-03-15T11:46:37.126Z,23.13
2018-03-15T11:49:05.323Z,29.80
2018-03-15T11:51:33.563Z,23.27
2018-03-15T11:54:01.938Z,31.40
2018-03-15T11:56:30.155Z,25.50
2018-03-15T11:58:59.114Z,18.03
2018-03-15T12:01:27.335Z,23.23
2018-03-15T12:03:56.403Z,28.10
2018-03-15T12:06:24.606Z,19.23
2018-03-15T12:08:52.812Z,27.40
2018-03-15T12:11:21.064Z,25.10
2018-03-15T12:13:49.327Z,23.63
2018-03-15T12:16:17.588Z,23.80
2018-03-15T12:18:46.618Z,27.53
2018-03-15T12:21:14.855Z,18.27
2018-03-15T12:23:43.789Z,24.37
2018-03-15T12:26:12.101Z,23.77
2018-03-15T12:28:40.269Z,22.00
2018-03-15T12:31:08.483Z,24.13
2018-03-15T12:33:37.488Z,23.50
2018-03-15T12:36:06.604Z,17.53
2018-03-15T12:38:34.839Z,20.47
2018-03-15T12:41:03.070Z,23.80
2018-03-15T12:43:31.268Z,16.77
2018-03-15T12:45:59.465Z,25.57
2018-03-15T12:48:28.459Z,21.07
2018-03-15T12:50:57.393Z,23.33
2018-03-15T12:53:25.634Z,23.07
2018-03-15T12:55:53.846Z,18.03
2018-03-15T12:58:22.096Z,32.13
2018-03-15T13:00:50.356Z,21.27
2018-03-15T13:03:18.726Z,29.90
2018-03-15T13:05:46.925Z,18.87
2018-03-15T13:08:15.155Z,21.53
2018-03-15T13:10:43.421Z,23.60
2018-03-15T13:13:11.649Z,23.33
2018-03-15T13:15:39.851Z,27.47
2018-03-15T13:18:08.038Z,29.93
2018-03-15T13:20:36.267Z,36.47
2018-03-15T13:23:04.569Z,28.53
2018-03-15T13:25:32.795Z,22.50
2018-03-15T13:28:01.093Z,24.50
2018-03-15T13:30:29.311Z,28.20
2018-03-15T13:32:57.563Z,22.90
2018-03-15T13:35:25.810Z,31.80
2018-03-15T13:37:54.038Z,23.73
2018-03-15T13:40:22.304Z,23.70
2018-03-15T13:42:50.594Z,29.63
2018-03-15T13:45:19.578Z,37.87
2018-03-15T13:47:47.864Z,25.27
2018-03-15T13:50:16.137Z,22.30
2018-03-15T13:52:44.404Z,25.10
2018-03-15T13:55:12.746Z,23.20
2018-03-15T13:57:41.004Z,27.60
2018-03-15T14:00:09.270Z,33.53
2018-03-15T14:02:37.636Z,18.07
2018-03-15T14:05:06.620Z,20.67
2018-03-15T14:07:35.567Z,22.77
2018-03-15T14:10:03.757Z,22.70
2018-03-15T14:12:31.926Z,21.40
2018-03-15T14:15:14.973Z,23.30
2018-03-15T14:17:43.250Z,24.63
2018-03-15T14:20:12.207Z,25.70
2018-03-15T14:22:40.504Z,28.60
2018-03-15T14:25:08.767Z,19.93
2018-03-15T14:27:38.665Z,20.73
2018-03-15T14:32:58.966Z,22.10
2018-03-15T14:35:27.312Z,22.30
2018-03-15T14:37:55.682Z,24.67
2018-03-15T14:40:24.283Z,25.23
2018-03-15T14:42:52.508Z,16.90
2018-03-15T14:45:20.837Z,21.90
2018-03-15T14:47:49.086Z,24.87
2018-03-15T14:50:17.275Z,31.43
2018-03-15T14:52:45.500Z,26.80
2018-03-15T14:55:13.691Z,22.63
2018-03-15T14:57:42.744Z,27.80
2018-03-15T15:00:10.947Z,20.40
2018-03-15T15:02:39.175Z,18.27
2018-03-15T15:05:07.381Z,17.90
2018-03-15T15:07:35.653Z,25.67
2018-03-15T15:10:03.844Z,19.30
2018-03-15T15:12:32.090Z,17.57
2018-03-15T15:15:00.510Z,12.73
2018-03-15T15:17:29.514Z,20.47
2018-03-15T15:19:57.779Z,32.27
2018-03-15T15:22:26.901Z,23.80
2018-03-15T15:24:55.228Z,19.37
2018-03-15T15:27:37.307Z,17.30
2018-03-15T15:30:06.734Z,18.23
2018-03-15T15:32:35.014Z,23.07
2018-03-15T15:35:03.222Z,17.80
2018-03-15T15:37:31.460Z,19.63
2018-03-15T15:39:59.643Z,24.37
2018-03-15T15:42:27.931Z,16.97
2018-03-15T15:44:56.926Z,17.77
2018-03-15T15:47:25.815Z,15.10
2018-03-15T15:49:54.847Z,16.27
2018-03-15T15:52:23.056Z,17.40
2018-03-15T15:54:51.333Z,14.80
2018-03-15T15:57:19.562Z,16.87
2018-03-15T15:59:47.886Z,15.53
2018-03-15T16:02:16.167Z,15.40
2018-03-15T16:04:44.331Z,13.60
2018-03-15T16:07:12.600Z,16.97
2018-03-15T16:09:40.826Z,18.57
2018-03-15T16:12:09.031Z,15.40
2018-03-15T16:14:37.308Z,12.43
2018-03-15T16:17:05.501Z,18.03
2018-03-15T16:19:34.496Z,13.40
2018-03-15T16:22:02.771Z,13.80
2018-03-15T16:24:30.977Z,20.80
2018-03-15T16:26:59.315Z,12.80
2018-03-15T16:29:27.640Z,15.63
2018-03-15T16:31:56.493Z,15.47
2018-03-15T16:34:24.767Z,13.63
2018-03-15T16:36:53.001Z,11.63
2018-03-15T16:39:21.223Z,14.90
2018-03-15T16:41:49.399Z,10.47
2018-03-15T16:44:18.441Z,15.53
2018-03-15T16:46:46.745Z,12.60
2018-03-15T16:49:14.938Z,18.27
2018-03-15T16:51:43.228Z,14.73
2018-03-15T16:54:11.490Z,24.07
2018-03-15T16:56:39.679Z,18.53
2018-03-15T16:59:08.662Z,13.87
2018-03-15T17:01:37.604Z,19.50
2018-03-15T17:04:05.831Z,14.90
2018-03-15T17:06:34.815Z,13.70
2018-03-15T17:09:03.822Z,14.63
2018-03-15T17:11:32.520Z,14.73
2018-03-15T17:14:00.735Z,14.00
2018-03-15T17:16:29.027Z,11.60
2018-03-15T17:18:57.241Z,13.23
2018-03-15T17:21:33.337Z,12.80
2018-03-15T17:24:01.613Z,10.07
2018-03-15T17:26:29.822Z,15.03
2018-03-15T17:28:58.016Z,16.63
2018-03-15T17:31:26.973Z,14.03
2018-03-15T17:33:55.204Z,13.47
2018-03-15T17:36:23.411Z,18.57
2018-03-15T17:38:51.607Z,9.67
2018-03-15T17:41:19.835Z,11.97
2018-03-15T17:43:48.030Z,11.50
2018-03-15T17:46:17.046Z,12.87
2018-03-15T17:48:45.998Z,12.37
2018-03-15T17:51:14.265Z,13.23
2018-03-15T17:53:42.503Z,16.73
2018-03-15T17:56:11.891Z,13.70
2018-03-15T17:58:40.095Z,13.93
2018-03-15T18:01:08.281Z,18.10
2018-03-15T18:03:36.524Z,13.30
2018-03-15T18:06:05.472Z,11.87
2018-03-15T18:08:33.699Z,11.13
2018-03-15T18:11:02.724Z,13.73
2018-03-15T18:13:31.319Z,12.90
2018-03-15T18:15:59.553Z,10.97
2018-03-15T18:18:27.754Z,14.47
2018-03-15T18:20:55.968Z,11.40
2018-03-15T18:23:24.976Z,12.27
2018-03-15T18:25:53.152Z,9.93
2018-03-15T18:28:21.328Z,17.07
2018-03-15T18:30:50.308Z,13.73
2018-03-15T18:33:18.496Z,24.03
2018-03-15T18:35:46.757Z,12.60
2018-03-15T18:38:14.936Z,29.07
2018-03-15T18:40:43.941Z,13.37
2018-03-15T18:43:12.910Z,13.80
2018-03-15T18:45:41.145Z,14.63
2018-03-15T18:48:09.345Z,11.97
2018-03-15T18:50:37.552Z,15.90
2018-03-15T18:53:06.512Z,10.90
2018-03-15T18:55:34.810Z,13.60
2018-03-15T18:58:03.031Z,16.50
2018-03-15T19:00:31.357Z,11.40
2018-03-15T19:03:00.357Z,14.27
2018-03-15T19:05:28.579Z,14.33
2018-03-15T19:07:56.828Z,12.50
2018-03-15T19:10:25.095Z,10.63
2018-03-15T19:12:53.371Z,12.70
2018-03-15T19:15:21.700Z,17.37
2018-03-15T19:17:50.050Z,14.63
2018-03-15T19:20:18.251Z,14.60
2018-03-15T19:22:46.588Z,11.53
2018-03-15T19:25:14.851Z,13.60
2018-03-15T19:27:43.059Z,13.57
2018-03-15T19:30:11.279Z,12.77
2018-03-15T19:32:40.374Z,10.70
2018-03-15T19:35:09.447Z,13.13
2018-03-15T19:37:37.680Z,13.47
2018-03-15T19:40:05.966Z,10.83
2018-03-15T19:42:34.236Z,11.93
2018-03-15T19:45:02.533Z,11.33
2018-03-15T19:47:30.915Z,10.40
2018-03-15T19:49:59.247Z,8.00
2018-03-15T19:52:27.485Z,7.20
2018-03-15T19:54:56.494Z,12.60
2018-03-15T19:57:24.787Z,7.93
2018-03-15T19:59:53.021Z,8.23
2018-03-15T20:02:21.372Z,5.27
2018-03-15T20:04:49.629Z,15.50
2018-03-15T20:07:18.030Z,9.07
2018-03-15T20:09:46.980Z,12.63
2018-03-15T20:12:15.249Z,8.87
2018-03-15T20:14:43.533Z,10.00
2018-03-15T20:17:11.831Z,10.87
2018-03-15T20:19:40.081Z,8.53
2018-03-15T20:22:09.076Z,8.70
2018-03-15T20:24:37.299Z,13.43
2018-03-15T20:27:05.516Z,10.00
2018-03-15T20:29:34.516Z,6.97
2018-03-15T20:32:02.746Z,5.37
2018-03-15T20:34:30.935Z,6.53
2018-03-15T20:36:59.261Z,10.03
2018-03-15T20:39:33.004Z,9.43
2018-03-15T20:42:01.352Z,11.43
2018-03-15T20:44:29.557Z,7.43
2018-03-15T20:47:03.398Z,9.03
2018-03-15T20:49:31.751Z,14.17
2018-03-15T20:52:00.764Z,8.70
2018-03-15T20:54:29.037Z,11.73
2018-03-15T20:56:57.362Z,10.40
2018-03-15T20:59:25.698Z,11.97
2018-03-15T21:01:53.936Z,14.00
2018-03-15T21:04:22.164Z,10.60
2018-03-15T21:06:50.408Z,7.30
2018-03-15T21:09:19.375Z,8.47
2018-03-15T21:12:10.660Z,8.60
2018-03-15T21:14:38.940Z,12.17
2018-03-15T21:17:21.939Z,9.53
2018-03-15T21:19:54.651Z,9.87
2018-03-15T21:22:36.650Z,8.00
2018-03-15T21:25:04.861Z,10.90
2018-03-15T21:27:33.189Z,10.00
2018-03-15T21:30:01.397Z,13.07
2018-03-15T21:32:29.628Z,14.47
2018-03-15T21:34:57.798Z,12.40
2018-03-15T21:37:25.971Z,11.90
2018-03-15T21:39:54.156Z,9.10
2018-03-15T21:42:22.339Z,16.93
2018-03-15T21:44:50.568Z,8.10
2018-03-15T21:47:18.991Z,13.50
2018-03-15T21:49:48.081Z,16.93
2018-03-15T21:52:16.285Z,11.20
2018-03-15T21:54:45.335Z,8.33
2018-03-15T21:57:13.655Z,8.70
2018-03-15T21:59:42.650Z,10.77
2018-03-15T22:02:11.739Z,9.77
2018-03-15T22:04:39.975Z,10.33
2018-03-15T22:07:08.442Z,16.10
2018-03-15T22:09:36.656Z,9.13
2018-03-15T22:12:04.953Z,10.07
2018-03-15T22:14:33.963Z,11.70
2018-03-15T22:17:02.925Z,11.17
2018-03-15T22:19:31.973Z,13.20
2018-03-15T22:22:15.304Z,15.20
2018-03-15T22:24:43.609Z,11.70
2018-03-15T22:27:12.699Z,16.83
2018-03-15T22:29:40.983Z,12.07
2018-03-15T22:32:10.233Z,9.90
2018-03-15T22:34:38.516Z,13.50
2018-03-15T22:37:06.899Z,13.53
2018-03-15T22:39:36.064Z,14.50
2018-03-15T22:42:04.480Z,18.73
2018-03-15T22:44:33.126Z,11.53
2018-03-15T22:47:01.331Z,13.23
2018-03-15T22:49:29.520Z,10.77
2018-03-15T22:51:57.776Z,13.13
2018-03-15T22:54:27.256Z,13.07
2018-03-15T23:00:01.987Z,12.63
2018-03-15T23:05:16.748Z,12.77
2018-03-15T23:07:44.935Z,14.10
2018-03-15T23:10:13.115Z,14.80
2018-03-15T23:12:41.321Z,16.10
2018-03-15T23:15:09.511Z,15.90
2018-03-15T23:17:38.687Z,15.73
2018-03-15T23:20:06.932Z,13.33
2018-03-15T23:25:50.417Z,11.83
2018-03-15T23:28:18.725Z,17.10
2018-03-15T23:30:46.971Z,12.17
2018-03-15T23:33:15.173Z,18.07
2018-03-15T23:35:43.350Z,10.40
2018-03-15T23:38:11.547Z,15.83
2018-03-15T23:40:40.522Z,15.77
2018-03-15T23:43:08.791Z,17.47
2018-03-15T23:45:36.953Z,16.00
2018-03-15T23:48:05.170Z,20.37
2018-03-15T23:50:35.456Z,19.13
2018-03-15T23:53:03.663Z,17.47
2018-03-15T23:55:31.956Z,19.93
2018-03-15T23:58:00.252Z,15.53
